createdAt,value
2022-09-21T00:01:10.234Z,12.85
2022-09-21T00:03:37.895Z,12.87
2022-09-21T00:06:06.192Z,12.86
2022-09-21T00:08:33.146Z,12.85
2022-09-21T00:11:00.217Z,12.81
2022-09-21T00:13:28.171Z,12.80
2022-09-21T00:15:55.790Z,12.79
2022-09-21T00:18:23.307Z,12.76
2022-09-21T00:20:50.188Z,12.76
2022-09-21T00:23:16.598Z,12.75
2022-09-21T00:25:43.116Z,12.74
2022-09-21T00:28:09.705Z,12.73
2022-09-21T00:30:37.493Z,12.71
2022-09-21T00:33:03.961Z,12.70
2022-09-21T00:35:30.450Z,12.66
2022-09-21T00:38:00.884Z,12.63
2022-09-21T00:40:27.285Z,12.62
2022-09-21T00:42:53.716Z,12.62
2022-09-21T00:45:23.151Z,12.60
2022-09-21T00:47:52.699Z,12.56
2022-09-21T00:50:22.841Z,12.55
2022-09-21T00:52:56.873Z,12.53
2022-09-21T00:55:33.013Z,12.53
2022-09-21T00:58:05.123Z,12.51
2022-09-21T01:00:31.661Z,12.51
2022-09-21T01:03:01.364Z,12.50
2022-09-21T01:05:28.608Z,12.48
2022-09-21T01:07:59.660Z,12.44
2022-09-21T01:10:27.425Z,12.42
2022-09-21T01:13:15.422Z,12.40
2022-09-21T01:15:48.548Z,12.38
2022-09-21T01:18:30.050Z,12.35
2022-09-21T01:21:17.663Z,12.35
2022-09-21T01:24:11.443Z,12.33
2022-09-21T01:27:05.529Z,12.31
2022-09-21T01:29:45.263Z,12.28
2022-09-21T01:32:24.073Z,12.26
2022-09-21T01:34:55.563Z,12.26
2022-09-21T01:37:33.888Z,12.22
2022-09-21T01:40:05.958Z,12.22
2022-09-21T01:42:34.504Z,12.19
2022-09-21T01:45:04.476Z,12.16
2022-09-21T01:47:31.783Z,12.13
2022-09-21T01:50:01.533Z,12.14
2022-09-21T01:52:48.656Z,12.11
2022-09-21T01:55:29.808Z,12.11
2022-09-21T01:58:05.570Z,12.11
2022-09-21T02:00:34.787Z,12.10
2022-09-21T02:03:20.926Z,12.05
2022-09-21T02:05:50.062Z,12.07
2022-09-21T02:08:16.772Z,12.05
2022-09-21T02:10:49.438Z,12.04
2022-09-21T02:13:17.897Z,12.04
2022-09-21T02:16:00.811Z,12.01
2022-09-21T02:18:33.196Z,12.03
2022-09-21T02:21:02.742Z,12.02
2022-09-21T02:23:56.728Z,12.00
2022-09-21T02:26:34.405Z,12.02
2022-09-21T02:29:22.491Z,11.98
2022-09-21T02:31:59.123Z,11.96
2022-09-21T02:34:52.507Z,11.91
2022-09-21T02:37:35.594Z,11.87
2022-09-21T02:40:22.676Z,11.86
2022-09-21T02:42:55.771Z,11.86
2022-09-21T02:45:26.595Z,11.84
2022-09-21T02:47:59.257Z,11.85
2022-09-21T02:50:40.423Z,11.82
2022-09-21T02:53:09.645Z,11.84
2022-09-21T02:55:36.753Z,11.83
2022-09-21T02:58:06.871Z,11.81
2022-09-21T03:00:35.257Z,11.78
2022-09-21T03:03:16.999Z,11.74
2022-09-21T03:05:49.219Z,11.76
2022-09-21T03:08:17.030Z,11.75
2022-09-21T03:10:43.524Z,11.73
2022-09-21T03:13:10.638Z,11.70
2022-09-21T03:15:38.471Z,11.69
2022-09-21T03:18:09.340Z,11.67
2022-09-21T03:20:37.026Z,11.66
2022-09-21T03:23:03.579Z,11.64
2022-09-21T03:25:30.939Z,11.62
2022-09-21T03:27:57.970Z,11.61
2022-09-21T03:30:26.449Z,11.58
2022-09-21T03:32:53.871Z,11.58
2022-09-21T03:35:21.672Z,11.58
2022-09-21T03:37:49.134Z,11.57
2022-09-21T03:40:17.567Z,11.57
2022-09-21T03:42:44.258Z,11.56
2022-09-21T03:45:12.004Z,11.54
2022-09-21T03:47:39.219Z,11.53
2022-09-21T03:50:09.999Z,11.51
2022-09-21T03:52:38.419Z,11.49
2022-09-21T03:55:06.853Z,11.49
2022-09-21T03:57:34.474Z,11.49
2022-09-21T04:00:03.785Z,11.49
2022-09-21T04:02:30.981Z,11.50
2022-09-21T04:04:58.145Z,11.47
2022-09-21T04:07:24.577Z,11.44
2022-09-21T04:09:51.168Z,11.44
2022-09-21T04:12:21.984Z,11.44
2022-09-21T04:14:49.711Z,11.44
2022-09-21T04:17:16.358Z,11.43
2022-09-21T04:19:44.933Z,11.41
2022-09-21T04:22:12.470Z,11.39
2022-09-21T04:24:40.885Z,11.37
2022-09-21T04:27:08.266Z,11.38
2022-09-21T04:29:34.776Z,11.36
2022-09-21T04:32:01.570Z,11.35
2022-09-21T04:34:28.042Z,11.35
2022-09-21T04:36:54.646Z,11.34
2022-09-21T04:39:21.022Z,11.33
2022-09-21T04:41:47.796Z,11.30
2022-09-21T04:44:14.179Z,11.29
2022-09-21T04:46:40.515Z,11.27
2022-09-21T04:49:06.954Z,11.25
2022-09-21T04:51:33.386Z,11.24
2022-09-21T04:53:59.931Z,11.24
2022-09-21T04:56:26.387Z,11.23
2022-09-21T04:58:52.828Z,11.23
2022-09-21T05:01:19.282Z,11.21
2022-09-21T05:03:45.714Z,11.20
2022-09-21T05:06:13.399Z,11.21
2022-09-21T05:08:58.738Z,11.21
2022-09-21T05:11:25.395Z,11.21
2022-09-21T05:13:52.084Z,11.22
2022-09-21T05:16:18.961Z,11.22
2022-09-21T05:18:46.083Z,11.22
2022-09-21T05:21:14.328Z,11.21
2022-09-21T05:23:41.071Z,11.23
2022-09-21T05:26:07.558Z,11.24
2022-09-21T05:28:37.812Z,11.24
2022-09-21T05:31:18.699Z,11.20
2022-09-21T05:34:05.628Z,11.20
2022-09-21T05:37:01.371Z,11.20
2022-09-21T05:39:28.099Z,11.23
2022-09-21T05:41:54.906Z,11.23
2022-09-21T05:44:21.687Z,11.24
2022-09-21T05:47:01.433Z,11.27
2022-09-21T05:50:30.966Z,11.26
2022-09-21T05:53:03.009Z,11.29
2022-09-21T05:55:47.563Z,11.30
2022-09-21T05:58:37.107Z,11.28
2022-09-21T06:01:40.097Z,11.31
2022-09-21T06:04:11.390Z,11.34
2022-09-21T06:06:37.836Z,11.37
2022-09-21T06:09:05.100Z,11.40
2022-09-21T06:11:32.208Z,11.42
2022-09-21T06:14:00.802Z,11.45
2022-09-21T06:16:27.406Z,11.47
2022-09-21T06:18:53.804Z,11.50
2022-09-21T06:21:20.339Z,11.53
2022-09-21T06:23:46.735Z,11.57
2022-09-21T06:26:13.587Z,11.60
2022-09-21T06:28:40.020Z,11.65
2022-09-21T06:31:06.551Z,11.69
2022-09-21T06:33:35.308Z,11.73
2022-09-21T06:36:01.882Z,11.76
2022-09-21T06:38:29.345Z,11.81
2022-09-21T06:40:55.970Z,11.85
2022-09-21T06:43:22.419Z,11.89
2022-09-21T06:45:56.760Z,11.91
2022-09-21T06:48:23.799Z,11.98
2022-09-21T06:50:51.227Z,12.01
2022-09-21T06:53:21.848Z,12.06
2022-09-21T06:55:48.182Z,12.10
2022-09-21T06:58:14.665Z,12.15
2022-09-21T07:00:41.356Z,12.19
2022-09-21T07:03:11.199Z,12.24
2022-09-21T07:05:38.106Z,12.30
2022-09-21T07:08:04.869Z,12.36
2022-09-21T07:10:32.087Z,12.41
2022-09-21T07:13:05.846Z,12.44
2022-09-21T07:15:32.807Z,12.52
2022-09-21T07:18:06.318Z,12.56
2022-09-21T07:20:32.694Z,12.63
2022-09-21T07:22:59.403Z,12.68
2022-09-21T07:25:25.908Z,12.74
2022-09-21T07:27:53.556Z,12.80
2022-09-21T07:30:19.924Z,12.86
2022-09-21T07:32:46.299Z,12.94
2022-09-21T07:35:12.747Z,12.99
2022-09-21T07:37:39.182Z,13.06
2022-09-21T07:40:06.400Z,13.13
2022-09-21T07:42:32.960Z,13.22
2022-09-21T07:45:05.844Z,13.29
2022-09-21T07:47:32.256Z,13.34
2022-09-21T07:49:58.847Z,13.35
2022-09-21T07:52:25.269Z,13.39
2022-09-21T07:54:51.607Z,13.41
2022-09-21T07:57:36.470Z,13.42
2022-09-21T08:00:04.768Z,13.47
2022-09-21T08:02:38.300Z,13.55
2022-09-21T08:05:04.810Z,13.61
2022-09-21T08:07:32.614Z,13.68
2022-09-21T08:09:59.224Z,13.77
2022-09-21T08:12:25.605Z,13.86
2022-09-21T08:14:52.041Z,13.92
2022-09-21T08:17:18.567Z,13.98
2022-09-21T08:19:45.002Z,14.05
2022-09-21T08:22:12.150Z,14.11
2022-09-21T08:24:41.474Z,14.15
2022-09-21T08:27:08.347Z,14.17
2022-09-21T08:29:36.184Z,14.22
2022-09-21T08:32:03.625Z,14.25
2022-09-21T08:34:30.176Z,14.32
2022-09-21T08:36:56.526Z,14.39
2022-09-21T08:39:23.885Z,14.41
2022-09-21T08:42:08.378Z,14.42
2022-09-21T08:44:59.466Z,14.49
2022-09-21T08:47:41.334Z,14.59
2022-09-21T08:50:24.451Z,14.78
2022-09-21T08:52:58.591Z,14.95
2022-09-21T08:55:25.033Z,15.09
2022-09-21T08:57:51.687Z,15.21
2022-09-21T09:00:19.073Z,15.32
2022-09-21T09:03:10.387Z,15.43
2022-09-21T09:06:04.688Z,15.59
2022-09-21T09:08:46.007Z,15.71
2022-09-21T09:11:28.422Z,15.86
2022-09-21T09:13:55.784Z,16.02
2022-09-21T09:16:29.377Z,16.15
2022-09-21T09:19:16.913Z,16.16
2022-09-21T09:21:44.917Z,16.23
2022-09-21T09:24:13.944Z,16.35
2022-09-21T09:26:48.666Z,16.42
2022-09-21T09:29:36.168Z,16.42
2022-09-21T09:32:04.860Z,16.49
2022-09-21T09:34:35.323Z,16.64
2022-09-21T09:37:11.604Z,16.77
2022-09-21T09:39:39.580Z,16.94
2022-09-21T09:42:23.391Z,17.05
2022-09-21T09:45:03.239Z,17.15
2022-09-21T09:47:48.096Z,17.30
2022-09-21T09:50:25.312Z,17.43
2022-09-21T09:52:54.944Z,17.50
2022-09-21T09:55:30.233Z,17.56
2022-09-21T09:57:56.884Z,17.61
2022-09-21T10:00:23.326Z,17.74
2022-09-21T10:02:55.270Z,18.02
2022-09-21T10:05:30.515Z,18.07
2022-09-21T10:07:56.958Z,18.19
2022-09-21T10:10:29.437Z,18.81
2022-09-21T10:13:03.077Z,19.66
2022-09-21T10:15:29.858Z,20.81
2022-09-21T10:18:11.323Z,22.63
2022-09-21T10:20:37.874Z,25.08
2022-09-21T10:23:05.386Z,26.12
2022-09-21T10:25:33.253Z,25.49
2022-09-21T10:28:04.060Z,24.42
2022-09-21T10:30:30.382Z,23.47
2022-09-21T10:32:58.569Z,22.71
2022-09-21T10:35:26.127Z,22.47
2022-09-21T10:38:22.727Z,24.53
2022-09-21T10:40:50.182Z,27.87
2022-09-21T10:43:34.748Z,30.76
2022-09-21T10:46:02.551Z,32.81
2022-09-21T10:48:29.542Z,34.29
2022-09-21T10:50:57.155Z,35.71
2022-09-21T10:53:36.602Z,36.84
2022-09-21T10:56:16.595Z,37.84
2022-09-21T10:59:10.308Z,38.91
2022-09-21T11:01:36.929Z,39.68
2022-09-21T11:04:10.053Z,40.47
2022-09-21T11:06:46.629Z,41.22
2022-09-21T11:09:45.307Z,41.81
2022-09-21T11:12:27.907Z,41.70
2022-09-21T11:15:11.069Z,42.16
2022-09-21T11:17:52.129Z,42.58
2022-09-21T11:20:41.609Z,43.24
2022-09-21T11:23:46.575Z,43.39
2022-09-21T11:26:24.869Z,43.65
2022-09-21T11:29:01.960Z,44.13
2022-09-21T11:31:47.095Z,44.63
2022-09-21T11:34:41.304Z,43.41
2022-09-21T11:37:24.682Z,42.94
2022-09-21T11:40:16.198Z,43.30
2022-09-21T11:42:55.414Z,44.01
2022-09-21T11:45:46.139Z,44.79
2022-09-21T11:48:23.808Z,45.42
2022-09-21T11:51:03.712Z,45.94
2022-09-21T11:53:49.757Z,46.49
2022-09-21T11:56:43.343Z,46.96
2022-09-21T11:59:18.775Z,47.37
2022-09-21T12:01:55.083Z,44.27
2022-09-21T12:04:39.538Z,39.57
2022-09-21T12:07:15.168Z,35.85
2022-09-21T12:09:58.436Z,32.77
2022-09-21T12:12:34.825Z,30.57
2022-09-21T12:15:12.171Z,28.89
2022-09-21T12:17:43.847Z,27.44
2022-09-21T12:20:37.003Z,26.24
2022-09-21T12:23:17.174Z,25.26
2022-09-21T12:25:50.098Z,24.56
2022-09-21T12:28:39.210Z,23.92
2022-09-21T12:31:13.135Z,23.74
2022-09-21T12:33:54.017Z,27.60
2022-09-21T12:36:27.959Z,31.76
2022-09-21T12:39:18.920Z,30.48
2022-09-21T12:42:02.874Z,28.48
2022-09-21T12:44:52.395Z,27.04
2022-09-21T12:47:58.217Z,25.60
2022-09-21T12:50:48.505Z,24.53
2022-09-21T12:53:19.527Z,23.89
2022-09-21T12:55:56.827Z,24.63
2022-09-21T12:58:41.477Z,26.26
2022-09-21T13:01:13.978Z,26.46
2022-09-21T13:03:55.988Z,25.82
2022-09-21T13:06:41.033Z,25.15
2022-09-21T13:09:12.426Z,26.19
2022-09-21T13:12:07.474Z,31.34
2022-09-21T13:14:41.430Z,36.13
2022-09-21T13:17:21.436Z,39.41
2022-09-21T13:19:58.806Z,41.71
2022-09-21T13:22:27.308Z,42.99
2022-09-21T13:25:04.875Z,43.78
2022-09-21T13:28:00.426Z,44.52
2022-09-21T13:30:49.017Z,45.38
2022-09-21T13:33:22.885Z,45.95
2022-09-21T13:36:04.338Z,46.14
2022-09-21T13:38:37.465Z,46.09
2022-09-21T13:41:35.536Z,45.97
2022-09-21T13:44:17.845Z,45.90
2022-09-21T13:46:54.779Z,45.49
2022-09-21T13:49:46.715Z,45.28
2022-09-21T13:52:12.985Z,44.79
2022-09-21T13:54:50.422Z,43.44
2022-09-21T13:57:48.304Z,41.91
2022-09-21T14:00:17.650Z,39.86
2022-09-21T14:02:54.691Z,38.04
2022-09-21T14:05:35.619Z,36.19
2022-09-21T14:08:06.752Z,34.46
2022-09-21T14:10:37.201Z,32.88
2022-09-21T14:13:23.040Z,31.55
2022-09-21T14:15:49.608Z,30.31
2022-09-21T14:18:16.876Z,29.35
2022-09-21T14:21:17.090Z,28.50
2022-09-21T14:24:06.671Z,27.76
2022-09-21T14:26:42.311Z,27.21
2022-09-21T14:29:27.906Z,26.57
2022-09-21T14:31:58.264Z,25.97
2022-09-21T14:34:31.544Z,25.51
2022-09-21T14:37:02.961Z,25.05
2022-09-21T14:39:33.828Z,24.59
2022-09-21T14:42:17.336Z,24.19
2022-09-21T14:44:44.538Z,23.89
2022-09-21T14:47:39.397Z,23.65
2022-09-21T14:50:28.800Z,23.49
2022-09-21T14:53:39.249Z,23.34
2022-09-21T14:56:38.943Z,23.16
2022-09-21T14:59:38.441Z,23.01
2022-09-21T15:02:20.768Z,22.93
2022-09-21T15:05:03.010Z,22.85
2022-09-21T15:08:24.102Z,22.75
2022-09-21T15:11:00.850Z,22.68
2022-09-21T15:14:02.281Z,22.49
2022-09-21T15:16:39.143Z,22.24
2022-09-21T15:19:16.123Z,22.03
2022-09-21T15:21:54.821Z,21.92
2022-09-21T15:24:27.352Z,21.81
2022-09-21T15:27:04.447Z,21.64
2022-09-21T15:29:32.671Z,21.56
2022-09-21T15:32:00.382Z,21.48
2022-09-21T15:34:26.941Z,21.41
2022-09-21T15:36:53.464Z,21.35
2022-09-21T15:39:28.451Z,21.18
2022-09-21T15:42:19.487Z,20.99
2022-09-21T15:44:48.568Z,20.90
2022-09-21T15:47:19.247Z,20.81
2022-09-21T15:49:45.770Z,20.70
2022-09-21T15:52:24.178Z,20.59
2022-09-21T15:55:02.934Z,20.57
2022-09-21T15:57:40.326Z,20.52
2022-09-21T16:00:15.962Z,20.46
2022-09-21T16:02:51.936Z,20.42
2022-09-21T16:05:22.554Z,20.30
2022-09-21T16:07:49.040Z,20.21
2022-09-21T16:10:30.602Z,20.18
2022-09-21T16:13:22.722Z,20.19
2022-09-21T16:16:07.676Z,20.14
2022-09-21T16:18:51.001Z,20.06
2022-09-21T16:21:34.178Z,20.00
2022-09-21T16:24:17.977Z,19.96
2022-09-21T16:27:04.851Z,19.89
2022-09-21T16:29:39.773Z,19.86
2022-09-21T16:32:19.846Z,19.84
2022-09-21T16:34:48.153Z,19.83
2022-09-21T16:37:20.268Z,19.74
2022-09-21T16:39:47.042Z,19.66
2022-09-21T16:42:13.530Z,19.60
2022-09-21T16:44:44.726Z,19.53
2022-09-21T16:47:36.503Z,19.49
2022-09-21T16:50:09.549Z,19.48
2022-09-21T16:52:35.982Z,19.46
2022-09-21T16:55:02.412Z,19.43
2022-09-21T16:57:28.837Z,19.36
2022-09-21T16:59:55.493Z,19.31
2022-09-21T17:02:22.004Z,19.27
2022-09-21T17:04:48.959Z,19.21
2022-09-21T17:07:16.877Z,19.15
2022-09-21T17:09:46.339Z,19.08
2022-09-21T17:12:15.496Z,19.01
2022-09-21T17:14:46.677Z,18.93
2022-09-21T17:17:22.323Z,18.85
2022-09-21T17:19:50.910Z,18.78
2022-09-21T17:22:18.176Z,18.70
2022-09-21T17:24:53.925Z,18.62
2022-09-21T17:27:22.533Z,18.56
2022-09-21T17:29:50.182Z,18.47
2022-09-21T17:32:20.575Z,18.37
2022-09-21T17:34:53.214Z,18.31
2022-09-21T17:37:19.623Z,18.24
2022-09-21T17:39:46.183Z,18.18
2022-09-21T17:42:19.084Z,18.10
2022-09-21T17:45:12.542Z,18.03
2022-09-21T17:47:40.519Z,17.99
2022-09-21T17:50:12.948Z,17.92
2022-09-21T17:52:59.705Z,17.88
2022-09-21T17:55:26.560Z,17.83
2022-09-21T17:58:10.241Z,17.75
2022-09-21T18:00:52.653Z,17.72
2022-09-21T18:03:25.364Z,17.68
2022-09-21T18:05:57.078Z,17.65
2022-09-21T18:08:26.337Z,17.61
2022-09-21T18:11:04.803Z,17.58
2022-09-21T18:13:49.768Z,17.59
2022-09-21T18:16:27.116Z,17.56
2022-09-21T18:19:10.494Z,17.54
2022-09-21T18:21:41.404Z,17.51
2022-09-21T18:24:31.928Z,17.47
2022-09-21T18:26:59.150Z,17.45
2022-09-21T18:29:39.946Z,17.38
2022-09-21T18:32:17.377Z,17.37
2022-09-21T18:35:13.033Z,17.33
2022-09-21T18:38:03.351Z,17.28
2022-09-21T18:40:40.279Z,17.25
2022-09-21T18:43:34.238Z,17.17
2022-09-21T18:46:24.582Z,17.13
2022-09-21T18:49:01.096Z,17.07
2022-09-21T18:51:57.356Z,17.02
2022-09-21T18:54:27.244Z,16.98
2022-09-21T18:56:55.296Z,16.94
2022-09-21T18:59:22.746Z,16.89
2022-09-21T19:01:50.563Z,16.85
2022-09-21T19:04:18.557Z,16.82
2022-09-21T19:06:59.445Z,16.78
2022-09-21T19:09:44.544Z,16.72
2022-09-21T19:12:20.425Z,16.69
2022-09-21T19:15:14.274Z,16.63
2022-09-21T19:18:09.860Z,16.62
2022-09-21T19:21:02.129Z,16.56
2022-09-21T19:23:40.036Z,16.56
2022-09-21T19:26:12.556Z,16.51
2022-09-21T19:28:52.376Z,16.42
2022-09-21T19:31:19.503Z,16.40
2022-09-21T19:33:51.404Z,16.38
2022-09-21T19:36:19.234Z,16.34
2022-09-21T19:38:45.888Z,16.31
2022-09-21T19:41:35.446Z,16.26
2022-09-21T19:44:31.186Z,16.23
2022-09-21T19:47:29.258Z,16.17
2022-09-21T19:50:03.658Z,16.15
2022-09-21T19:52:34.357Z,16.12
2022-09-21T19:55:19.608Z,16.09
2022-09-21T19:58:05.020Z,16.09
2022-09-21T20:00:32.401Z,16.06
2022-09-21T20:03:05.614Z,16.02
2022-09-21T20:05:48.221Z,15.98
2022-09-21T20:08:38.998Z,15.96
2022-09-21T20:11:13.648Z,15.97
2022-09-21T20:13:51.030Z,15.96
2022-09-21T20:16:43.618Z,15.93
2022-09-21T20:19:20.062Z,15.91
2022-09-21T20:21:51.192Z,15.91
2022-09-21T20:24:27.614Z,15.86
2022-09-21T20:26:54.289Z,15.86
2022-09-21T20:29:21.763Z,15.83
2022-09-21T20:31:51.787Z,15.79
2022-09-21T20:34:18.835Z,15.76
2022-09-21T20:36:45.388Z,15.71
2022-09-21T20:39:11.795Z,15.65
2022-09-21T20:41:39.431Z,15.63
2022-09-21T20:44:05.973Z,15.63
2022-09-21T20:46:32.391Z,15.63
2022-09-21T20:49:05.418Z,15.62
2022-09-21T20:51:33.911Z,15.60
2022-09-21T20:54:04.324Z,15.60
2022-09-21T20:56:31.166Z,15.57
2022-09-21T20:58:57.691Z,15.57
2022-09-21T21:01:24.225Z,15.57
2022-09-21T21:03:51.131Z,15.56
2022-09-21T21:06:21.214Z,15.57
2022-09-21T21:08:47.786Z,15.59
2022-09-21T21:11:16.742Z,15.59
2022-09-21T21:13:43.784Z,15.59
2022-09-21T21:16:12.317Z,15.60
2022-09-21T21:18:40.448Z,15.60
2022-09-21T21:21:06.985Z,15.59
2022-09-21T21:23:53.278Z,15.59
2022-09-21T21:26:19.920Z,15.59
2022-09-21T21:28:46.353Z,15.55
2022-09-21T21:31:16.169Z,15.51
2022-09-21T21:33:46.384Z,15.48
2022-09-21T21:36:14.835Z,15.43
2022-09-21T21:38:43.056Z,15.38
2022-09-21T21:41:12.639Z,15.33
2022-09-21T21:43:39.739Z,15.31
2022-09-21T21:46:08.466Z,15.27
2022-09-21T21:48:40.759Z,15.22
2022-09-21T21:51:07.701Z,15.22
2022-09-21T21:53:36.929Z,15.20
2022-09-21T21:56:06.293Z,15.17
2022-09-21T21:58:33.854Z,15.14
2022-09-21T22:01:27.968Z,15.10
2022-09-21T22:04:02.262Z,15.10
2022-09-21T22:06:30.672Z,15.07
2022-09-21T22:08:57.815Z,15.04
2022-09-21T22:11:25.471Z,15.00
2022-09-21T22:13:53.959Z,14.99
2022-09-21T22:16:22.892Z,14.97
2022-09-21T22:18:50.524Z,14.95
2022-09-21T22:21:28.195Z,14.93
2022-09-21T22:24:04.719Z,14.92
2022-09-21T22:26:36.012Z,14.91
2022-09-21T22:29:04.663Z,14.89
2022-09-21T22:31:39.392Z,14.85
2022-09-21T22:34:06.206Z,14.82
2022-09-21T22:36:35.000Z,14.78
2022-09-21T22:39:02.012Z,14.72
2022-09-21T22:41:30.567Z,14.69
2022-09-21T22:43:58.653Z,14.66
2022-09-21T22:46:26.632Z,14.64
2022-09-21T22:48:53.373Z,14.62
2022-09-21T22:51:20.619Z,14.57
2022-09-21T22:53:48.226Z,14.54
2022-09-21T22:56:17.678Z,14.49
2022-09-21T22:58:52.727Z,14.43
2022-09-21T23:01:25.558Z,14.40
2022-09-21T23:03:57.820Z,14.40
2022-09-21T23:06:28.088Z,14.40
2022-09-21T23:08:56.496Z,14.38
2022-09-21T23:11:27.039Z,14.36
2022-09-21T23:13:55.571Z,14.34
2022-09-21T23:16:23.028Z,14.32
2022-09-21T23:18:50.004Z,14.29
2022-09-21T23:21:22.491Z,14.28
2022-09-21T23:23:49.516Z,14.27
2022-09-21T23:26:21.693Z,14.26
2022-09-21T23:28:58.209Z,14.25
2022-09-21T23:31:28.504Z,14.27
2022-09-21T23:33:58.897Z,14.27
2022-09-21T23:36:28.008Z,14.26
2022-09-21T23:38:54.756Z,14.27
2022-09-21T23:41:32.707Z,14.28
2022-09-21T23:43:59.394Z,14.28
2022-09-21T23:46:29.073Z,14.27
2022-09-21T23:48:57.080Z,14.27
2022-09-21T23:51:23.426Z,14.27
2022-09-21T23:53:49.854Z,14.25
2022-09-21T23:56:19.143Z,14.25
2022-09-21T23:58:46.305Z,14.26
